Time;durP1;ratioP1;P1;durP2;ratioP2;P2;SDS_P1;SDS_P2;PMS_P1;PMS_P2;Temp;Humidity;BMP_temperature;BMP_pressure;BME280_temperature;BME280_humidity;BME280_pressure;Samples;Min_cycle;Max_cycle;Signal;HPM_P1;HPM_P2
2022/07/28 00:01:21;;;;;;;2.97;1.40;;;;;;;17.03;48.58;95647.28;5050144;28;20182;-77
2022/07/28 00:03:47;;;;;;;2.63;1.45;;;;;;;16.98;48.48;95644.41;5027594;28;20608;-78
2022/07/28 00:06:13;;;;;;;4.28;1.35;;;;;;;17.03;48.36;95643.84;5029121;28;20189;-79
2022/07/28 00:08:38;;;;;;;2.95;1.45;;;;;;;16.94;48.83;95638.72;5010335;28;20182;-78
2022/07/28 00:11:03;;;;;;;2.08;1.15;;;;;;;16.89;48.79;95635.03;5050056;28;20705;-78
2022/07/28 00:13:29;;;;;;;3.83;1.42;;;;;;;16.85;48.88;95634.56;5042845;28;20214;-79
2022/07/28 00:15:54;;;;;;;4.35;1.67;;;;;;;16.86;49.18;95640.63;5024349;28;20268;-79
2022/07/28 00:18:19;;;;;;;6.35;1.40;;;;;;;16.87;48.76;95634.38;5028010;28;20195;-79
2022/07/28 00:20:44;;;;;;;4.30;1.30;;;;;;;16.83;49.02;95633.94;5010856;28;20770;-77
2022/07/28 00:23:10;;;;;;;4.50;1.58;;;;;;;16.79;49.02;95631.88;5016397;28;20296;-79
2022/07/28 00:25:35;;;;;;;6.30;1.50;;;;;;;16.69;49.32;95629.53;5049140;28;20189;-78
2022/07/28 00:28:00;;;;;;;3.42;1.50;;;;;;;16.69;49.21;95632.97;5012778;28;20193;-78
2022/07/28 00:30:26;;;;;;;4.00;1.40;;;;;;;16.67;49.70;95631.50;5033294;28;20213;-79
2022/07/28 00:32:51;;;;;;;2.38;1.40;;;;;;;16.67;48.87;95621.81;5027371;28;20582;-79
2022/07/28 00:35:16;;;;;;;6.68;1.70;;;;;;;16.67;49.32;95626.25;5046948;28;20318;-78
2022/07/28 00:37:41;;;;;;;4.03;1.70;;;;;;;16.68;49.02;95618.22;5043970;28;20210;-79
2022/07/28 00:40:08;;;;;;;3.33;1.30;;;;;;;16.66;49.22;95617.56;5028208;28;20653;-78
2022/07/28 00:42:33;;;;;;;3.35;1.20;;;;;;;16.65;49.38;95617.75;5023964;28;20353;-78
2022/07/28 00:44:58;;;;;;;4.07;1.20;;;;;;;16.67;49.39;95616.56;5014198;28;20249;-78
2022/07/28 00:47:24;;;;;;;2.65;1.58;;;;;;;16.62;49.41;95608.47;5012495;28;20234;-78
2022/07/28 00:49:49;;;;;;;1.77;1.13;;;;;;;16.73;49.02;95612.44;5026670;28;20191;-78
2022/07/28 00:52:16;;;;;;;3.03;1.63;;;;;;;16.60;49.40;95609.63;5027277;28;20221;-78
2022/07/28 00:54:41;;;;;;;2.58;1.13;;;;;;;16.57;49.72;95604.75;5027011;28;20187;-78
2022/07/28 00:57:06;;;;;;;4.93;1.33;;;;;;;16.48;49.73;95604.03;5029184;28;20206;-78
2022/07/28 00:59:32;;;;;;;2.17;1.20;;;;;;;16.52;49.66;95602.69;5045969;28;20186;-79
2022/07/28 01:01:57;;;;;;;2.25;1.30;;;;;;;16.43;49.97;95601.13;5043119;28;20199;-78
2022/07/28 01:04:23;;;;;;;3.40;1.10;;;;;;;16.43;50.09;95609.00;5027920;28;20308;-79
2022/07/28 01:07:01;;;;;;;2.85;1.27;;;;;;;16.39;50.15;95602.50;5029418;28;20186;-78
2022/07/28 01:10:02;;;;;;;1.92;1.33;;;;;;;16.37;50.02;95607.13;5031390;28;20708;-79
2022/07/28 01:12:54;;;;;;;4.68;1.40;;;;;;;16.40;50.11;95602.31;5027075;28;20301;-78
2022/07/28 01:15:39;;;;;;;3.47;1.75;;;;;;;16.32;50.21;95599.78;5024077;28;20186;-78
2022/07/28 01:18:11;;;;;;;5.28;1.50;;;;;;;16.39;50.00;95592.84;5027660;28;20189;-78
2022/07/28 01:20:41;;;;;;;3.72;1.23;;;;;;;16.22;50.48;95595.84;5027533;28;20629;-79
2022/07/28 01:23:26;;;;;;;1.48;1.30;;;;;;;16.22;51.02;95594.03;5026356;28;20407;-78
2022/07/28 01:26:09;;;;;;;4.35;1.40;;;;;;;16.18;50.90;95591.97;5035078;28;20246;-78
2022/07/28 01:28:56;;;;;;;2.85;1.27;;;;;;;16.13;51.12;95587.25;5025586;28;20308;-79
2022/07/28 01:31:24;;;;;;;6.43;1.60;;;;;;;16.12;50.98;95591.69;5008141;28;20186;-78
2022/07/28 01:34:09;;;;;;;2.55;1.40;;;;;;;16.08;51.12;95584.38;5012803;28;20224;-80
2022/07/28 01:36:44;;;;;;;3.67;1.60;;;;;;;15.96;51.52;95576.13;5017433;28;20224;-78
2022/07/28 01:39:10;;;;;;;4.07;1.20;;;;;;;16.06;51.01;95581.09;5036779;28;20583;-79
2022/07/28 01:41:36;;;;;;;2.80;1.40;;;;;;;15.93;51.56;95573.88;5030423;28;20213;-78
2022/07/28 01:44:05;;;;;;;3.65;1.33;;;;;;;15.96;51.49;95573.50;5028698;28;20190;-79
2022/07/28 01:46:32;;;;;;;4.78;1.33;;;;;;;15.91;51.50;95565.41;5032451;28;20219;-79
2022/07/28 01:48:58;;;;;;;4.97;1.50;;;;;;;15.79;51.78;95580.72;5039045;28;20325;-79
2022/07/28 01:51:26;;;;;;;4.53;1.50;;;;;;;15.77;52.01;95568.81;5029309;28;20244;-79
2022/07/28 01:53:53;;;;;;;2.40;1.10;;;;;;;15.70;52.22;95570.50;5028542;28;20210;-77
2022/07/28 01:56:19;;;;;;;3.25;1.45;;;;;;;15.56;53.50;95570.28;5016862;28;20229;-79
2022/07/28 01:58:44;;;;;;;3.90;1.20;;;;;;;15.56;53.03;95567.66;5050957;28;20178;-77
2022/07/28 02:01:11;;;;;;;2.35;1.15;;;;;;;15.63;52.67;95565.16;5030062;28;20294;-79
2022/07/28 02:03:38;;;;;;;3.75;1.30;;;;;;;15.61;53.09;95567.16;5039701;28;20202;-78
2022/07/28 02:06:04;;;;;;;5.57;1.20;;;;;;;15.65;52.24;95568.44;5011838;28;20185;-78
2022/07/28 02:08:31;;;;;;;4.32;1.27;;;;;;;15.54;52.67;95560.97;5018535;28;20600;-79
2022/07/28 02:13:42;;;;;;;3.13;1.30;;;;;;;15.59;52.42;95556.84;5034518;28;20248;-78
2022/07/28 02:16:10;;;;;;;4.07;1.48;;;;;;;15.50;52.77;95560.53;5028528;28;20213;-78
2022/07/28 02:18:36;;;;;;;6.75;1.50;;;;;;;15.53;52.90;95551.50;5034459;28;20202;-78
2022/07/28 02:21:02;;;;;;;2.13;1.20;;;;;;;15.61;52.38;95553.25;5029405;28;20281;-78
2022/07/28 02:23:28;;;;;;;4.93;1.58;;;;;;;15.53;52.74;95547.06;5022387;28;20229;-78
2022/07/28 02:25:54;;;;;;;3.80;1.20;;;;;;;15.47;52.51;95555.66;5034720;28;20201;-78
2022/07/28 02:28:20;;;;;;;2.35;1.27;;;;;;;15.42;53.14;95551.94;5047296;28;20191;-79
2022/07/28 02:30:49;;;;;;;3.47;1.25;;;;;;;15.40;53.22;95552.13;5038297;28;20188;-78
2022/07/28 02:33:17;;;;;;;4.85;1.60;;;;;;;15.42;53.08;95551.94;5015514;28;20578;-78
2022/07/28 02:35:43;;;;;;;5.38;1.50;;;;;;;15.37;53.27;95547.25;5031666;28;20190;-79
2022/07/28 02:38:19;;;;;;;4.00;1.30;;;;;;;15.32;53.25;95543.53;5038860;28;20181;-78
2022/07/28 02:40:47;;;;;;;4.60;1.48;;;;;;;15.36;53.18;95540.34;5032025;28;20178;-79
2022/07/28 02:43:15;;;;;;;4.68;1.35;;;;;;;15.32;53.62;95536.47;5047591;28;20202;-79
2022/07/28 02:45:42;;;;;;;5.97;1.48;;;;;;;15.23;53.77;95540.16;5029662;28;20246;-78
2022/07/28 02:48:11;;;;;;;3.78;1.27;;;;;;;15.30;53.26;95526.19;5031806;28;20186;-78
2022/07/28 02:50:39;;;;;;;5.50;1.35;;;;;;;15.30;53.28;95533.25;5025673;28;20186;-78
2022/07/28 02:53:05;;;;;;;6.70;1.40;;;;;;;15.19;54.16;95533.63;5033353;28;20236;-78
2022/07/28 02:55:31;;;;;;;3.42;1.38;;;;;;;15.21;53.86;95529.88;5011517;28;20632;-77
2022/07/28 02:57:57;;;;;;;3.60;1.23;;;;;;;15.20;53.69;95530.06;5039003;28;20292;-78
2022/07/28 03:00:24;;;;;;;1.92;1.13;;;;;;;15.23;53.65;95533.13;5012143;28;20222;-78
2022/07/28 03:02:49;;;;;;;4.82;1.40;;;;;;;15.20;54.06;95538.72;5030871;28;20205;-77
2022/07/28 03:05:15;;;;;;;3.60;1.65;;;;;;;15.19;54.00;95533.63;5029327;28;20189;-79
2022/07/28 03:07:41;;;;;;;4.43;1.40;;;;;;;15.12;54.92;95533.53;5011648;28;20220;-77
2022/07/28 03:10:06;;;;;;;1.98;1.35;;;;;;;15.13;54.49;95527.31;5031904;28;20395;-78
2022/07/28 03:12:32;;;;;;;6.32;2.03;;;;;;;15.11;54.39;95529.31;5011771;28;20564;-78
2022/07/28 03:14:57;;;;;;;2.45;1.40;;;;;;;15.10;55.03;95530.28;5030223;28;20588;-79
2022/07/28 03:17:23;;;;;;;4.32;1.10;;;;;;;15.10;54.88;95527.66;5038734;28;20250;-79
2022/07/28 03:19:48;;;;;;;3.17;1.50;;;;;;;15.05;55.25;95531.81;5048806;28;20190;-79
2022/07/28 03:22:13;;;;;;;2.70;1.60;;;;;;;14.93;55.87;95526.16;5027893;28;20280;-78
2022/07/28 03:24:47;;;;;;;4.28;1.55;;;;;;;15.11;54.94;95536.34;5025539;28;20317;-78
2022/07/28 03:27:16;;;;;;;1.90;1.30;;;;;;;15.03;55.20;95524.13;5033725;28;20281;-79
2022/07/28 03:29:43;;;;;;;2.50;1.45;;;;;;;14.91;56.13;95530.75;5047934;28;20222;-77
2022/07/28 03:32:08;;;;;;;2.60;1.25;;;;;;;14.91;55.78;95528.13;5031023;28;20749;-79
2022/07/28 03:34:34;;;;;;;6.78;1.63;;;;;;;14.84;56.40;95530.66;5035150;28;20277;-78
2022/07/28 03:37:04;;;;;;;2.58;1.67;;;;;;;14.79;56.17;95532.16;5028866;28;20205;-77
2022/07/28 03:39:32;;;;;;;2.25;1.40;;;;;;;14.72;56.46;95532.84;5031040;28;20653;-78
2022/07/28 03:41:58;;;;;;;4.22;1.80;;;;;;;14.82;56.29;95540.44;5013822;28;20278;-78
2022/07/28 03:44:24;;;;;;;3.75;1.40;;;;;;;14.80;56.41;95544.22;5030181;28;20692;-78
2022/07/28 03:46:49;;;;;;;3.55;1.77;;;;;;;14.78;56.77;95541.00;5032388;28;20193;-79
2022/07/28 03:49:14;;;;;;;2.30;1.63;;;;;;;14.69;57.25;95546.25;5011544;28;20186;-79
2022/07/28 03:51:39;;;;;;;3.70;1.73;;;;;;;14.68;56.97;95543.81;5028221;28;20189;-78
2022/07/28 03:54:05;;;;;;;2.45;1.58;;;;;;;14.63;57.71;95552.16;5029145;28;20192;-79
2022/07/28 03:56:31;;;;;;;6.00;1.40;;;;;;;14.65;57.43;95546.78;5027379;28;20682;-79
2022/07/28 03:58:56;;;;;;;1.98;1.30;;;;;;;14.73;56.81;95552.75;5011169;28;20201;-79
2022/07/28 04:01:21;;;;;;;4.05;1.48;;;;;;;14.71;56.83;95546.09;5011619;28;20189;-78
2022/07/28 04:03:46;;;;;;;3.58;1.40;;;;;;;14.89;56.62;95545.81;5029590;28;20621;-78
2022/07/28 04:06:12;;;;;;;2.80;1.52;;;;;;;15.03;56.04;95547.69;5010866;28;20198;-79
2022/07/28 04:08:38;;;;;;;1.50;1.40;;;;;;;15.12;55.93;95548.44;5025117;28;20189;-79
2022/07/28 04:11:03;;;;;;;6.20;1.45;;;;;;;15.19;55.67;95544.91;5034317;28;20181;-79
2022/07/28 04:13:30;;;;;;;3.42;1.40;;;;;;;15.18;55.58;95537.25;5029784;28;20259;-79
2022/07/28 04:15:56;;;;;;;5.15;1.75;;;;;;;15.30;55.31;95543.69;5026670;28;20178;-80
2022/07/28 04:18:21;;;;;;;3.55;1.23;;;;;;;15.44;54.82;95544.72;5008416;28;20198;-79
2022/07/28 04:20:46;;;;;;;2.53;1.48;;;;;;;15.48;54.53;95536.34;5009881;28;20194;-79
2022/07/28 04:23:11;;;;;;;1.73;1.30;;;;;;;15.58;53.94;95542.13;5009824;28;20233;-78
2022/07/28 04:25:37;;;;;;;5.70;1.60;;;;;;;15.71;53.95;95540.72;5043744;28;20208;-78
2022/07/28 04:28:02;;;;;;;2.85;1.58;;;;;;;15.76;53.87;95541.00;5024689;28;20193;-81
2022/07/28 04:30:28;;;;;;;3.55;1.40;;;;;;;15.79;53.89;95540.63;5046874;28;20840;-79
2022/07/28 04:32:54;;;;;;;3.20;1.60;;;;;;;15.84;53.36;95541.72;5011482;28;20214;-77
2022/07/28 04:35:21;;;;;;;2.58;1.35;;;;;;;15.98;53.29;95539.28;5005285;28;20194;-77
2022/07/28 04:37:47;;;;;;;1.67;1.10;;;;;;;16.10;53.01;95532.63;5041320;28;20223;-77
2022/07/28 04:40:13;;;;;;;3.88;1.48;;;;;;;16.20;52.75;95540.19;5008850;28;20400;-77
2022/07/28 04:42:38;;;;;;;4.30;1.63;;;;;;;16.31;52.21;95535.28;5029644;28;20609;-77
2022/07/28 04:45:08;;;;;;;2.53;1.42;;;;;;;16.15;53.36;95544.16;5029359;28;20181;-78
2022/07/28 04:47:34;;;;;;;2.78;1.50;;;;;;;16.31;53.13;95535.28;5007898;28;20216;-77
2022/07/28 04:49:59;;;;;;;3.90;1.40;;;;;;;17.06;51.06;95538.56;5025291;28;20646;-77
2022/07/28 04:52:25;;;;;;;1.50;1.40;;;;;;;18.27;47.77;95535.56;5022683;28;20210;-77
2022/07/28 04:54:51;;;;;;;1.85;1.35;;;;;;;18.76;46.28;95531.94;5021786;28;20186;-77
2022/07/28 04:57:17;;;;;;;6.32;1.45;;;;;;;18.84;45.35;95530.94;5006361;28;20586;-77
2022/07/28 04:59:42;;;;;;;6.20;1.50;;;;;;;19.45;44.02;95533.44;5042947;28;20186;-77
2022/07/28 05:02:07;;;;;;;3.33;1.30;;;;;;;18.91;45.37;95537.84;5021792;28;20206;-76
2022/07/28 05:04:33;;;;;;;3.55;1.30;;;;;;;18.81;45.93;95537.41;5010823;28;20231;-77
2022/07/28 05:06:58;;;;;;;5.50;1.63;;;;;;;18.83;45.33;95540.66;5022595;28;20181;-77
2022/07/28 05:09:24;;;;;;;4.18;1.65;;;;;;;19.03;45.02;95534.63;5005490;28;20755;-77
2022/07/28 05:11:49;;;;;;;3.03;1.85;;;;;;;19.20;44.95;95541.13;5042197;28;20217;-77
2022/07/28 05:14:14;;;;;;;2.65;1.50;;;;;;;20.45;41.53;95540.19;5007578;28;20532;-77
2022/07/28 05:16:40;;;;;;;3.08;1.33;;;;;;;20.99;41.04;95541.56;5005537;28;20218;-75
2022/07/28 05:19:05;;;;;;;3.38;1.50;;;;;;;23.01;36.62;95539.22;5041843;28;20268;-76
2022/07/28 05:21:31;;;;;;;2.63;1.35;;;;;;;21.94;37.87;95542.25;5024029;28;20543;-77
2022/07/28 05:23:56;;;;;;;5.88;1.67;;;;;;;20.80;40.77;95538.00;5046810;28;20213;-75
2022/07/28 05:26:22;;;;;;;4.63;1.40;;;;;;;19.89;42.63;95539.94;5045715;28;20178;-77
2022/07/28 05:28:47;;;;;;;3.42;1.52;;;;;;;20.36;42.09;95546.69;5031834;28;20287;-77
2022/07/28 05:31:13;;;;;;;4.25;1.45;;;;;;;23.18;36.49;95537.56;5025469;28;20232;-77
2022/07/28 05:33:38;;;;;;;4.95;1.73;;;;;;;24.45;34.13;95545.03;5028404;28;20210;-77
2022/07/28 05:36:04;;;;;;;5.78;1.70;;;;;;;24.40;34.10;95543.09;5041045;28;20676;-77
2022/07/28 05:38:30;;;;;;;2.53;1.40;;;;;;;24.35;33.79;95544.81;5025286;28;20194;-77
2022/07/28 05:40:55;;;;;;;3.78;1.83;;;;;;;25.76;31.96;95547.72;5022735;28;20186;-77
2022/07/28 05:43:21;;;;;;;2.53;1.35;;;;;;;25.57;32.30;95547.13;5026251;28;20696;-77
2022/07/28 05:45:46;;;;;;;3.25;1.52;;;;;;;25.78;31.65;95545.59;5027225;28;20454;-77
2022/07/28 05:48:12;;;;;;;3.90;1.50;;;;;;;28.20;28.23;95547.75;5041628;28;20265;-76
2022/07/28 05:50:37;;;;;;;4.70;1.90;;;;;;;26.22;31.18;95560.63;5043960;28;20186;-77
2022/07/28 05:53:02;;;;;;;4.28;1.75;;;;;;;27.87;28.24;95554.19;5022074;28;20206;-76
2022/07/28 05:55:28;;;;;;;3.20;1.50;;;;;;;28.21;28.11;95549.34;5042686;28;20585;-76
2022/07/28 05:57:53;;;;;;;3.50;2.03;;;;;;;28.07;28.37;95548.19;5005416;28;20210;-77
2022/07/28 06:00:21;;;;;;;3.20;1.70;;;;;;;27.79;28.28;95555.47;5040794;28;20189;-79
2022/07/28 06:02:48;;;;;;;3.22;1.83;;;;;;;28.80;27.11;95562.47;5024051;28;20198;-79
2022/07/28 06:05:18;;;;;;;5.25;1.50;;;;;;;29.32;26.44;95549.00;5043903;28;20269;-78
2022/07/28 06:07:44;;;;;;;2.83;1.58;;;;;;;28.80;27.63;95559.78;5009018;28;20277;-78
2022/07/28 06:10:14;;;;;;;2.35;1.50;;;;;;;30.32;24.64;95553.84;5027269;28;20193;-79
2022/07/28 06:12:45;;;;;;;4.07;2.22;;;;;;;28.61;28.06;95554.13;5025283;28;20716;-78
2022/07/28 06:15:14;;;;;;;2.85;1.55;;;;;;;29.01;27.67;95550.03;5041827;28;20264;-78
2022/07/28 06:17:40;;;;;;;3.40;1.67;;;;;;;30.65;24.57;95556.97;5041735;28;20202;-78
2022/07/28 06:20:06;;;;;;;2.60;1.40;;;;;;;31.50;23.35;95554.94;5040647;28;20187;-79
2022/07/28 06:22:46;;;;;;;4.45;2.10;;;;;;;28.95;26.70;95549.19;5030547;28;20709;-80
2022/07/28 06:25:16;;;;;;;2.83;1.88;;;;;;;30.33;25.22;95562.69;5014612;28;20193;-79
2022/07/28 06:27:44;;;;;;;4.03;1.70;;;;;;;30.15;25.09;95554.16;5019908;28;20194;-79
2022/07/28 06:30:09;;;;;;;3.90;1.70;;;;;;;30.56;24.97;95551.34;5018503;28;20208;-78
2022/07/28 06:32:35;;;;;;;4.43;1.70;;;;;;;30.66;24.71;95554.03;5011857;28;20201;-78
2022/07/28 06:35:00;;;;;;;1.60;1.50;;;;;;;29.88;25.75;95556.28;5011958;28;20185;-78
2022/07/28 06:37:25;;;;;;;2.58;1.70;;;;;;;29.82;25.87;95547.47;5042768;28;20198;-77
2022/07/28 06:39:51;;;;;;;3.30;1.70;;;;;;;30.08;25.85;95550.94;5030669;28;20265;-78
2022/07/28 06:42:16;;;;;;;2.03;1.70;;;;;;;29.90;26.27;95548.78;5013088;28;20577;-81
2022/07/28 06:44:41;;;;;;;5.43;2.20;;;;;;;29.25;26.87;95555.69;5025714;28;20236;-81
2022/07/28 06:47:07;;;;;;;3.75;2.10;;;;;;;29.83;26.26;95553.59;5025883;28;20186;-79
2022/07/28 06:49:32;;;;;;;3.72;1.95;;;;;;;29.79;26.08;95548.00;5011340;28;20186;-80
2022/07/28 06:51:57;;;;;;;3.00;2.15;;;;;;;30.55;25.42;95554.31;5028834;28;20216;-78
2022/07/28 06:54:23;;;;;;;3.00;1.80;;;;;;;29.88;26.24;95541.03;5044798;28;20178;-79
2022/07/28 06:56:48;;;;;;;5.07;2.13;;;;;;;28.99;28.23;95544.16;5027654;28;20210;-79
2022/07/28 06:59:14;;;;;;;5.38;2.25;;;;;;;28.53;28.52;95548.47;5049318;28;20189;-78
2022/07/28 07:01:39;;;;;;;4.80;2.53;;;;;;;30.16;26.57;95553.06;5044599;28;20190;-79
2022/07/28 07:04:07;;;;;;;4.55;2.47;;;;;;;30.09;26.89;95549.06;5014637;28;20186;-80
2022/07/28 07:06:32;;;;;;;6.32;2.75;;;;;;;30.31;26.88;95559.47;5051202;28;20308;-81
2022/07/28 07:08:57;;;;;;;4.32;2.78;;;;;;;30.33;26.48;95557.31;5016410;28;20205;-78
2022/07/28 07:11:23;;;;;;;4.22;2.50;;;;;;;30.51;26.45;95553.25;5012242;28;20197;-79
2022/07/28 07:13:48;;;;;;;4.53;2.45;;;;;;;31.48;25.47;95550.94;5044928;28;20202;-80
2022/07/28 07:16:14;;;;;;;9.15;3.08;;;;;;;29.26;28.49;95542.06;5045823;28;20213;-79
2022/07/28 07:18:39;;;;;;;6.70;2.63;;;;;;;30.03;27.03;95552.78;5028781;28;20232;-79
2022/07/28 07:21:05;;;;;;;5.03;2.45;;;;;;;29.90;27.11;95554.16;5028189;28;20626;-78
2022/07/28 07:23:30;;;;;;;4.75;2.38;;;;;;;29.90;27.35;95557.63;5046118;28;20209;-80
2022/07/28 07:25:55;;;;;;;8.55;2.85;;;;;;;29.71;27.68;95556.56;5029210;28;20220;-77
2022/07/28 07:28:21;;;;;;;4.43;3.00;;;;;;;29.36;28.68;95551.97;5045378;28;20266;-79
2022/07/28 07:30:47;;;;;;;4.53;3.00;;;;;;;27.23;31.63;95548.84;5029332;28;20189;-79
2022/07/28 07:33:12;;;;;;;5.47;2.50;;;;;;;27.16;31.87;95545.56;5043377;28;20198;-79
2022/07/28 07:35:38;;;;;;;4.60;2.70;;;;;;;27.55;31.72;95540.84;5028014;28;20285;-79
2022/07/28 07:38:03;;;;;;;5.35;3.00;;;;;;;27.55;31.05;95530.97;5046092;28;20221;-81
2022/07/28 07:40:28;;;;;;;6.28;3.47;;;;;;;26.83;32.99;95534.00;5028085;28;20189;-79
2022/07/28 07:42:54;;;;;;;3.67;3.10;;;;;;;28.31;30.62;95537.97;5035291;28;20214;-78
2022/07/28 07:45:19;;;;;;;4.78;2.97;;;;;;;27.61;32.40;95532.63;5009539;28;20195;-80
2022/07/28 07:47:44;;;;;;;6.50;3.47;;;;;;;27.18;32.70;95538.13;5028267;28;20190;-79
2022/07/28 07:50:10;;;;;;;3.50;3.15;;;;;;;26.95;32.93;95539.19;5028299;28;20530;-81
2022/07/28 07:52:35;;;;;;;3.55;2.80;;;;;;;26.85;34.01;95533.72;5027437;28;20289;-80
2022/07/28 07:55:00;;;;;;;5.53;3.20;;;;;;;27.06;33.92;95522.28;5027579;28;20189;-80
2022/07/28 07:57:26;;;;;;;3.60;3.13;;;;;;;27.54;33.02;95533.91;5012343;28;20229;-81
2022/07/28 07:59:51;;;;;;;9.73;3.53;;;;;;;26.68;34.00;95526.66;5011185;28;20185;-80
2022/07/28 08:02:16;;;;;;;5.90;3.78;;;;;;;25.98;35.66;95532.63;5030043;28;20216;-79
2022/07/28 08:04:41;;;;;;;4.35;3.88;;;;;;;25.59;36.64;95537.84;5044776;28;20713;-80
2022/07/28 08:07:07;;;;;;;4.55;3.67;;;;;;;25.27;37.56;95536.81;5028183;28;20664;-81
2022/07/28 08:09:33;;;;;;;6.57;3.83;;;;;;;25.74;36.52;95541.84;5010052;28;20197;-80
2022/07/28 08:11:58;;;;;;;5.95;3.83;;;;;;;24.83;38.42;95536.50;5027210;28;20203;-79
2022/07/28 08:14:24;;;;;;;5.80;3.80;;;;;;;25.09;38.38;95528.00;5010783;28;20284;-80
2022/07/28 08:16:49;;;;;;;9.50;4.68;;;;;;;24.65;38.93;95521.56;5023973;28;20225;-80
2022/07/28 08:19:14;;;;;;;8.18;4.22;;;;;;;23.96;41.04;95531.22;5010954;28;20204;-78
2022/07/28 08:21:40;;;;;;;4.97;4.45;;;;;;;23.66;41.41;95528.69;5045920;28;20700;-79
2022/07/28 08:24:05;;;;;;;6.25;4.07;;;;;;;24.26;40.37;95523.91;5025042;28;20290;-80
2022/07/28 08:26:31;;;;;;;6.00;4.20;;;;;;;24.71;39.76;95535.72;5044119;28;20564;-81
2022/07/28 08:28:56;;;;;;;7.22;4.93;;;;;;;24.49;39.52;95524.97;5036196;28;20590;-79
2022/07/28 08:31:21;;;;;;;6.15;4.57;;;;;;;23.37;42.42;95527.69;5029317;28;20236;-80
2022/07/28 08:33:47;;;;;;;7.20;4.80;;;;;;;23.28;42.76;95529.88;5010818;28;20218;-79
2022/07/28 08:36:13;;;;;;;6.07;4.50;;;;;;;23.15;43.64;95522.94;5028848;28;20202;-80
2022/07/28 08:38:39;;;;;;;6.68;4.35;;;;;;;23.44;43.35;95534.50;5044807;28;20183;-79
2022/07/28 08:41:05;;;;;;;5.90;4.57;;;;;;;23.15;43.65;95532.72;5009258;28;20189;-79
2022/07/28 08:43:37;;;;;;;9.10;5.38;;;;;;;23.14;43.87;95525.78;5026400;28;20214;-80
2022/07/28 08:46:05;;;;;;;5.63;4.40;;;;;;;23.70;43.47;95528.00;5013171;28;20209;-82
2022/07/28 08:48:34;;;;;;;5.97;5.18;;;;;;;23.18;44.03;95532.25;5038180;28;20673;-80
2022/07/28 08:51:02;;;;;;;6.53;4.35;;;;;;;23.41;43.16;95523.53;5039128;28;20188;-81
2022/07/28 08:53:29;;;;;;;6.22;4.70;;;;;;;23.81;42.57;95534.34;5025268;28;20224;-82
2022/07/28 08:55:58;;;;;;;7.22;4.88;;;;;;;23.50;43.65;95532.81;5022445;28;20648;-81
2022/07/28 08:58:24;;;;;;;8.98;4.85;;;;;;;23.79;42.80;95527.66;5022390;28;20269;-81
2022/07/28 09:00:49;;;;;;;7.35;4.40;;;;;;;24.28;41.90;95526.34;5042711;28;20246;-81
2022/07/28 09:03:15;;;;;;;7.80;4.22;;;;;;;24.36;41.65;95528.66;5009903;28;20197;-81
2022/07/28 09:05:42;;;;;;;6.63;5.35;;;;;;;24.45;40.82;95531.75;5023225;28;20228;-81
2022/07/28 09:08:07;;;;;;;5.25;4.75;;;;;;;24.33;41.71;95531.78;5026536;28;20174;-82
2022/07/28 09:10:33;;;;;;;9.25;4.60;;;;;;;24.28;41.82;95521.03;5033625;28;20239;-80
2022/07/28 09:12:58;;;;;;;6.32;4.70;;;;;;;24.27;41.15;95522.88;5024524;28;20732;-82
2022/07/28 09:15:23;;;;;;;10.30;5.18;;;;;;;24.48;41.14;95523.34;5033406;28;20192;-80
2022/07/28 09:17:49;;;;;;;10.02;4.72;;;;;;;24.56;41.77;95529.09;5024121;28;20227;-81
2022/07/28 09:20:15;;;;;;;7.80;5.03;;;;;;;24.54;41.31;95520.53;5024932;28;20186;-81
2022/07/28 09:23:01;;;;;;;9.20;4.80;;;;;;;24.93;40.78;95528.72;5020372;28;20643;-80
2022/07/28 09:25:27;;;;;;;6.72;5.22;;;;;;;24.46;41.39;95522.75;5040214;28;20186;-81
2022/07/28 09:27:53;;;;;;;7.88;4.90;;;;;;;25.00;40.92;95532.06;5029187;28;20186;-82
2022/07/28 09:30:34;;;;;;;7.60;5.28;;;;;;;25.28;39.36;95527.78;5022651;28;20186;-80
2022/07/28 09:33:26;;;;;;;8.27;4.93;;;;;;;24.75;40.94;95528.91;5026736;28;20284;-81
2022/07/28 09:35:53;;;;;;;7.40;5.80;;;;;;;24.43;41.78;95529.34;5027395;28;20182;-79
2022/07/28 09:38:20;;;;;;;5.47;4.97;;;;;;;24.38;42.35;95523.13;5034974;28;20236;-81
2022/07/28 09:40:57;;;;;;;5.88;5.38;;;;;;;24.24;42.46;95539.28;5030577;28;20186;-81
2022/07/28 09:43:38;;;;;;;6.93;5.32;;;;;;;24.61;42.19;95524.91;5030189;28;20217;-81
2022/07/28 09:46:06;;;;;;;11.05;5.15;;;;;;;24.96;40.99;95514.97;5043942;28;20530;-81
2022/07/28 09:48:32;;;;;;;10.05;6.35;;;;;;;25.41;40.09;95522.13;5033638;28;20190;-81
2022/07/28 09:51:12;;;;;;;7.25;5.15;;;;;;;25.57;40.49;95509.91;5011187;28;20654;-83
2022/07/28 09:53:38;;;;;;;5.63;4.93;;;;;;;25.36;39.99;95511.44;5021714;28;20210;-82
2022/07/28 09:56:03;;;;;;;8.63;5.28;;;;;;;25.34;40.80;95516.16;5026629;28;20189;-82
2022/07/28 09:58:29;;;;;;;5.43;4.90;;;;;;;25.05;40.94;95504.78;5024516;28;20269;-80
2022/07/28 10:01:21;;;;;;;7.38;5.43;;;;;;;25.33;40.61;95507.38;5026080;28;20543;-81
2022/07/28 10:03:57;;;;;;;10.05;5.05;;;;;;;25.56;39.62;95511.75;5013423;28;20619;-81
2022/07/28 10:06:23;;;;;;;7.05;5.00;;;;;;;25.89;39.53;95510.97;5032599;28;20205;-81
2022/07/28 10:08:50;;;;;;;6.95;4.93;;;;;;;25.60;39.42;95499.56;5034311;28;20689;-81
2022/07/28 10:11:17;;;;;;;7.13;5.07;;;;;;;24.91;41.38;95506.88;5012833;28;20186;-81
2022/07/28 10:14:12;;;;;;;10.05;4.95;;;;;;;25.54;40.03;95500.56;5004581;28;20206;-80
2022/07/28 10:16:42;;;;;;;7.05;4.97;;;;;;;25.36;39.93;95504.28;4953322;28;20259;-79
2022/07/28 10:19:07;;;;;;;5.70;4.82;;;;;;;25.48;40.34;95488.22;4977716;28;20736;-79
2022/07/28 10:21:39;;;;;;;7.43;4.88;;;;;;;25.77;40.05;95490.81;4964917;28;20212;-81
2022/07/28 10:24:05;;;;;;;6.03;4.90;;;;;;;25.75;39.27;95490.25;4955919;28;20195;-80
2022/07/28 10:26:34;;;;;;;5.68;4.88;;;;;;;25.60;39.38;95486.28;4963245;28;20291;-81
2022/07/28 10:29:08;;;;;;;7.25;4.40;;;;;;;26.01;40.07;95488.75;4963530;28;20227;-81
2022/07/28 10:31:50;;;;;;;8.88;4.90;;;;;;;26.08;38.87;95484.88;4956816;28;20659;-81
2022/07/28 10:34:21;;;;;;;8.05;5.78;;;;;;;25.73;39.40;95487.03;4964704;28;20734;-79
2022/07/28 10:36:48;;;;;;;6.97;4.80;;;;;;;26.05;38.86;95496.00;4961588;28;20235;-81
2022/07/28 10:39:18;;;;;;;8.55;5.10;;;;;;;25.63;40.33;95493.78;4962094;28;20188;-80
2022/07/28 10:41:44;;;;;;;11.48;4.57;;;;;;;26.02;39.62;95496.50;4967004;28;20895;-80
2022/07/28 10:44:14;;;;;;;5.40;4.55;;;;;;;25.89;39.16;95492.34;4970162;28;20196;-79
2022/07/28 10:46:41;;;;;;;8.48;5.85;;;;;;;25.80;38.75;95493.00;4955836;28;20254;-80
2022/07/28 10:49:07;;;;;;;6.38;4.95;;;;;;;26.28;38.54;95484.31;4965626;28;20200;-81
2022/07/28 10:51:33;;;;;;;7.63;4.75;;;;;;;26.43;39.00;95489.06;4963631;28;20280;-82
2022/07/28 10:54:22;;;;;;;5.25;4.70;;;;;;;26.92;37.48;95486.38;5015406;28;20215;-81
2022/07/28 10:56:50;;;;;;;6.00;5.45;;;;;;;27.22;36.46;95484.06;5041686;28;20229;-82
2022/07/28 10:59:39;;;;;;;6.82;4.63;;;;;;;27.62;36.20;95483.56;5026572;28;20221;-81
2022/07/28 11:02:04;;;;;;;7.47;4.28;;;;;;;27.48;36.20;95485.06;5041706;28;20228;-81
2022/07/28 11:04:47;;;;;;;6.70;5.00;;;;;;;27.42;35.71;95494.09;5007603;28;20690;-81
2022/07/28 11:07:15;;;;;;;7.93;5.20;;;;;;;27.73;35.32;95486.31;5023818;28;20200;-82
2022/07/28 11:09:41;;;;;;;6.13;4.50;;;;;;;27.95;35.33;95492.34;5043767;28;20194;-81
2022/07/28 11:12:06;;;;;;;4.90;4.35;;;;;;;27.72;34.87;95479.38;5029430;28;20317;-80
2022/07/28 11:14:36;;;;;;;4.80;4.18;;;;;;;27.78;35.20;95481.03;5023573;28;20252;-83
2022/07/28 11:17:04;;;;;;;9.50;4.90;;;;;;;27.89;34.53;95480.81;5020933;28;20201;-82
2022/07/28 11:19:30;;;;;;;4.53;3.83;;;;;;;27.61;34.72;95478.47;5022315;28;20190;-82
2022/07/28 11:22:13;;;;;;;5.50;4.22;;;;;;;27.46;36.19;95473.84;5024569;28;20187;-82
2022/07/28 11:25:05;;;;;;;4.93;3.75;;;;;;;27.40;35.80;95474.06;5043470;28;20186;-81
2022/07/28 11:27:40;;;;;;;5.70;4.20;;;;;;;27.55;35.13;95479.50;5065403;28;20170;-80
2022/07/28 11:30:09;;;;;;;5.47;4.28;;;;;;;27.33;35.17;95472.41;5051650;28;20180;-80
2022/07/28 11:32:52;;;;;;;4.95;4.07;;;;;;;27.56;35.23;95478.44;5021469;28;20681;-81
2022/07/28 11:35:18;;;;;;;6.68;4.18;;;;;;;27.90;33.89;95469.09;5025070;28;20200;-82
2022/07/28 11:38:02;;;;;;;5.53;4.13;;;;;;;27.83;34.17;95471.22;5042588;28;20202;-82
2022/07/28 11:40:34;;;;;;;5.05;4.55;;;;;;;27.61;35.16;95467.81;5034822;28;20204;-82